Time,TemperatureF,DewpointF,PressureIn,WindDirection,WindDirectionDegrees,WindSpeedMPH,WindSpeedGustMPH,Humidity,HourlyPrecipIn,Conditions,Clouds,dailyrainin,SoftwareType,DateUTC
2014-12-27 00:04:00,44.6,33.6,30.17,ESE,116,0.0,2.0,65,0.00,,,0.01,Wunderground v.1.13,2014-12-27 05:04:00,
2014-12-27 00:14:00,44.2,33.2,30.17,ESE,116,0.0,2.0,65,0.00,,,0.00,Wunderground v.1.13,2014-12-27 05:14:00,
2014-12-27 00:24:00,44.1,33.5,30.17,ESE,116,0.0,2.0,66,0.00,,,0.00,Wunderground v.1.13,2014-12-27 05:24:00,
2014-12-27 00:34:00,44.1,33.5,30.17,ESE,116,0.0,2.0,66,0.00,,,0.00,Wunderground v.1.13,2014-12-27 05:34:00,
2014-12-27 00:44:00,44.1,33.5,30.17,ESE,116,0.0,2.0,66,0.00,,,0.00,Wunderground v.1.13,2014-12-27 05:44:00,
2014-12-27 00:54:00,43.9,34.0,30.17,ESE,116,0.0,2.0,68,0.00,,,0.00,Wunderground v.1.13,2014-12-27 05:54:00,
2014-12-27 01:04:00,43.2,34.8,30.17,NW,323,2.0,2.0,72,0.00,,,0.00,Wunderground v.1.13,2014-12-27 06:04:00,
2014-12-27 01:14:00,42.8,34.7,30.17,NW,325,1.0,1.0,73,0.00,,,0.00,Wunderground v.1.13,2014-12-27 06:14:00,
2014-12-27 01:24:00,43.1,35.0,30.17,NW,325,0.0,2.0,73,0.00,,,0.00,Wunderground v.1.13,2014-12-27 06:24:00,
2014-12-27 01:34:00,43.1,35.0,30.17,NW,325,1.0,2.0,73,0.00,,,0.00,Wunderground v.1.13,2014-12-27 06:34:00,
2014-12-27 01:44:00,42.8,34.7,30.17,NW,325,1.0,1.0,73,0.00,,,0.00,Wunderground v.1.13,2014-12-27 06:44:00,
2014-12-27 01:54:00,42.9,34.5,30.18,NW,325,0.0,2.0,72,0.00,,,0.00,Wunderground v.1.13,2014-12-27 06:54:00,
2014-12-27 02:04:00,42.8,34.7,30.18,NW,325,1.0,1.0,73,0.00,,,0.00,Wunderground v.1.13,2014-12-27 07:04:00,
2014-12-27 02:14:00,42.6,34.9,30.18,NW,325,0.0,2.0,74,0.00,,,0.00,Wunderground v.1.13,2014-12-27 07:14:00,
2014-12-27 02:24:00,42.3,34.9,30.19,NW,325,1.0,2.0,75,0.00,,,0.00,Wunderground v.1.13,2014-12-27 07:24:00,
2014-12-27 02:34:00,42.1,35.1,30.20,NW,325,0.0,3.0,76,0.00,,,0.00,Wunderground v.1.13,2014-12-27 07:34:00,
2014-12-27 02:44:00,41.9,34.9,30.20,NW,325,0.0,2.0,76,0.00,,,0.00,Wunderground v.1.13,2014-12-27 07:44:00,
2014-12-27 02:54:00,41.8,35.1,30.20,NW,325,0.0,2.0,77,0.00,,,0.00,Wunderground v.1.13,2014-12-27 07:54:00,
2014-12-27 03:04:00,41.6,34.9,30.20,NW,325,0.0,2.0,77,0.00,,,0.00,Wunderground v.1.13,2014-12-27 08:04:00,
2014-12-27 03:14:00,41.5,35.2,30.20,NW,325,0.0,2.0,78,0.00,,,0.00,Wunderground v.1.13,2014-12-27 08:14:00,
2014-12-27 03:24:00,41.2,34.9,30.20,NW,325,0.0,2.0,78,0.00,,,0.00,Wunderground v.1.13,2014-12-27 08:24:00,
2014-12-27 03:34:00,41.2,34.9,30.20,NW,325,0.0,2.0,78,0.00,,,0.00,Wunderground v.1.13,2014-12-27 08:34:00,
2014-12-27 03:44:00,41.1,34.8,30.20,NW,325,0.0,2.0,78,0.00,,,0.00,Wunderground v.1.13,2014-12-27 08:44:00,
2014-12-27 03:54:00,40.8,34.5,30.19,NW,325,0.0,2.0,78,0.00,,,0.00,Wunderground v.1.13,2014-12-27 08:54:00,
2014-12-27 04:04:00,40.5,34.5,30.19,NW,325,0.0,2.0,79,0.00,,,0.00,Wunderground v.1.13,2014-12-27 09:04:00,
2014-12-27 04:14:00,40.1,34.1,30.19,NW,325,0.0,2.0,79,0.00,,,0.00,Wunderground v.1.13,2014-12-27 09:14:00,
2014-12-27 04:24:00,39.8,34.1,30.20,NW,325,0.0,2.0,80,0.00,,,0.00,Wunderground v.1.13,2014-12-27 09:24:00,
2014-12-27 04:34:00,39.5,33.8,30.19,NW,325,0.0,2.0,80,0.00,,,0.00,Wunderground v.1.13,2014-12-27 09:34:00,
2014-12-27 04:44:00,39.2,33.9,30.19,NW,325,0.0,2.0,81,0.00,,,0.00,Wunderground v.1.13,2014-12-27 09:44:00,
2014-12-27 04:54:00,39.1,34.1,30.20,NW,325,0.0,2.0,82,0.00,,,0.00,Wunderground v.1.13,2014-12-27 09:54:00,
2014-12-27 05:04:00,39.1,34.4,30.19,NW,325,0.0,2.0,83,0.00,,,0.00,Wunderground v.1.13,2014-12-27 10:04:00,
2014-12-27 05:14:00,38.9,34.5,30.19,NW,325,0.0,2.0,84,0.00,,,0.00,Wunderground v.1.13,2014-12-27 10:14:00,
2014-12-27 05:24:00,38.8,34.4,30.20,NW,325,0.0,2.0,84,0.00,,,0.00,Wunderground v.1.13,2014-12-27 10:24:00,
2014-12-27 05:34:00,38.8,34.4,30.19,NW,325,0.0,2.0,84,0.00,,,0.00,Wunderground v.1.13,2014-12-27 10:34:00,
2014-12-27 05:44:00,38.8,34.7,30.19,NW,325,0.0,2.0,85,0.00,,,0.00,Wunderground v.1.13,2014-12-27 10:44:00,
2014-12-27 05:54:00,38.8,34.7,30.19,NW,325,0.0,2.0,85,0.00,,,0.00,Wunderground v.1.13,2014-12-27 10:54:00,
2014-12-27 06:04:00,38.9,34.8,30.19,NW,325,0.0,2.0,85,0.00,,,0.00,Wunderground v.1.13,2014-12-27 11:04:00,
2014-12-27 06:14:00,38.9,34.8,30.19,NW,325,0.0,2.0,85,0.00,,,0.00,Wunderground v.1.13,2014-12-27 11:14:00,
2014-12-27 06:24:00,39.1,35.0,30.20,NW,325,1.0,1.0,85,0.00,,,0.00,Wunderground v.1.13,2014-12-27 11:24:00,
2014-12-27 06:34:00,39.3,34.9,30.19,NW,325,0.0,2.0,84,0.00,,,0.00,Wunderground v.1.13,2014-12-27 11:34:00,
2014-12-27 06:44:00,39.5,35.1,30.19,NW,325,0.0,2.0,84,0.00,,,0.00,Wunderground v.1.13,2014-12-27 11:44:00,
2014-12-27 06:54:00,39.5,35.1,30.20,NW,325,0.0,2.0,84,0.00,,,0.00,Wunderground v.1.13,2014-12-27 11:54:00,
2014-12-27 07:04:00,39.6,35.2,30.20,NW,325,0.0,2.0,84,0.00,,,0.00,Wunderground v.1.13,2014-12-27 12:04:00,
2014-12-27 07:14:00,39.8,35.4,30.20,NW,325,0.0,2.0,84,0.00,,,0.00,Wunderground v.1.13,2014-12-27 12:14:00,
2014-12-27 07:24:00,39.9,35.5,30.21,NW,325,0.0,2.0,84,0.00,,,0.00,Wunderground v.1.13,2014-12-27 12:24:00,
2014-12-27 07:34:00,39.9,35.5,30.21,NW,325,0.0,2.0,84,0.00,,,0.00,Wunderground v.1.13,2014-12-27 12:34:00,
2014-12-27 07:44:00,40.1,36.0,30.21,NW,325,0.0,2.0,85,0.00,,,0.00,Wunderground v.1.13,2014-12-27 12:44:00,
2014-12-27 07:54:00,40.2,36.1,30.22,NW,325,0.0,2.0,85,0.00,,,0.00,Wunderground v.1.13,2014-12-27 12:54:00,
2014-12-27 08:04:00,40.2,36.1,30.21,NW,325,0.0,2.0,85,0.00,,,0.01,Wunderground v.1.13,2014-12-27 13:04:00,
2014-12-27 08:14:00,40.2,36.1,30.21,NW,325,0.0,2.0,85,0.00,,,0.01,Wunderground v.1.13,2014-12-27 13:14:00,
2014-12-27 08:24:00,40.3,36.4,30.21,NW,325,0.0,2.0,86,0.00,,,0.01,Wunderground v.1.13,2014-12-27 13:24:00,
2014-12-27 08:34:00,40.5,36.6,30.21,NW,325,0.0,2.0,86,0.00,,,0.01,Wunderground v.1.13,2014-12-27 13:34:00,
2014-12-27 08:44:00,40.6,36.7,30.21,NW,325,0.0,2.0,86,0.00,,,0.02,Wunderground v.1.13,2014-12-27 13:44:00,
2014-12-27 08:54:00,40.6,36.7,30.21,NW,325,0.0,2.0,86,0.00,,,0.02,Wunderground v.1.13,2014-12-27 13:54:00,
2014-12-27 09:04:00,41.2,36.7,30.21,East,79,1.0,1.0,84,0.00,,,0.02,Wunderground v.1.13,2014-12-27 14:04:00,
2014-12-27 09:14:00,41.8,36.7,30.21,East,79,0.0,2.0,82,0.00,,,0.02,Wunderground v.1.13,2014-12-27 14:14:00,
2014-12-27 09:24:00,42.5,36.8,30.20,ESE,112,1.0,1.0,80,0.00,,,0.02,Wunderground v.1.13,2014-12-27 14:24:00,
2014-12-27 09:34:00,43.3,37.2,30.20,ESE,116,1.0,1.0,79,0.00,,,0.02,Wunderground v.1.13,2014-12-27 14:34:00,
2014-12-27 09:44:00,44.1,37.3,30.20,ESE,120,1.0,2.0,77,0.00,,,0.02,Wunderground v.1.13,2014-12-27 14:44:00,
2014-12-27 09:54:00,44.6,37.5,30.20,East,85,2.0,2.0,76,0.00,,,0.02,Wunderground v.1.13,2014-12-27 14:54:00,
2014-12-27 10:04:00,44.8,37.4,30.19,ESE,116,1.0,2.0,75,0.00,,,0.02,Wunderground v.1.13,2014-12-27 15:04:00,
2014-12-27 10:14:00,45.1,37.6,30.19,ESE,116,1.0,2.0,75,0.00,,,0.02,Wunderground v.1.13,2014-12-27 15:14:00,
2014-12-27 10:24:00,45.5,37.7,30.19,ESE,117,1.0,1.0,74,0.00,,,0.02,Wunderground v.1.13,2014-12-27 15:24:00,
2014-12-27 10:34:00,45.8,38.0,30.19,ESE,117,1.0,1.0,74,0.00,,,0.02,Wunderground v.1.13,2014-12-27 15:34:00,
2014-12-27 10:44:00,46.2,38.4,30.19,ESE,114,1.0,1.0,74,0.00,,,0.02,Wunderground v.1.13,2014-12-27 15:44:00,
2014-12-27 10:54:00,46.8,38.9,30.19,ESE,112,1.0,1.0,74,0.00,,,0.02,Wunderground v.1.13,2014-12-27 15:54:00,
2014-12-27 11:04:00,47.3,39.1,30.19,ESE,112,1.0,1.0,73,0.00,,,0.02,Wunderground v.1.13,2014-12-27 16:04:00,
2014-12-27 11:14:00,47.6,39.0,30.19,ESE,110,1.0,1.0,72,0.00,,,0.02,Wunderground v.1.13,2014-12-27 16:14:00,
2014-12-27 11:24:00,48.2,39.2,30.19,ESE,110,0.0,2.0,71,0.00,,,0.02,Wunderground v.1.13,2014-12-27 16:24:00,
2014-12-27 11:34:00,48.8,39.4,30.17,ESE,109,1.0,2.0,70,0.00,,,0.02,Wunderground v.1.13,2014-12-27 16:34:00,
2014-12-27 11:44:00,49.4,39.7,30.17,ESE,107,1.0,1.0,69,0.00,,,0.02,Wunderground v.1.13,2014-12-27 16:44:00,
2014-12-27 11:54:00,50.2,40.0,30.16,ESE,121,1.0,1.0,68,0.00,,,0.02,Wunderground v.1.13,2014-12-27 16:54:00,
2014-12-27 12:04:00,51.6,40.2,30.15,SE,144,2.0,12.0,65,0.00,,,0.02,Wunderground v.1.13,2014-12-27 17:04:00,
2014-12-27 12:14:00,52.5,39.4,30.15,ESE,117,5.0,11.0,61,0.00,,,0.02,Wunderground v.1.13,2014-12-27 17:14:00,
2014-12-27 12:24:00,52.8,39.7,30.14,ESE,113,5.0,5.0,61,0.00,,,0.02,Wunderground v.1.13,2014-12-27 17:24:00,
2014-12-27 12:34:00,52.8,40.5,30.12,SE,131,6.0,6.0,63,0.00,,,0.02,Wunderground v.1.13,2014-12-27 17:34:00,
2014-12-27 12:44:00,52.2,41.6,30.12,ESE,119,8.0,8.0,67,0.00,,,0.02,Wunderground v.1.13,2014-12-27 17:44:00,
2014-12-27 12:54:00,51.9,42.0,30.12,SE,130,5.0,7.0,69,0.00,,,0.02,Wunderground v.1.13,2014-12-27 17:54:00,
2014-12-27 13:04:00,51.4,43.0,30.13,ESE,123,6.0,13.0,73,0.00,,,0.02,Wunderground v.1.13,2014-12-27 18:04:00,
2014-12-27 13:14:00,51.0,43.4,30.13,SSE,147,5.0,8.0,75,0.00,,,0.02,Wunderground v.1.13,2014-12-27 18:14:00,
2014-12-27 13:24:00,50.8,43.5,30.12,SE,141,5.0,5.0,76,0.00,,,0.02,Wunderground v.1.13,2014-12-27 18:24:00,
2014-12-27 13:34:00,50.8,43.2,30.12,SE,140,5.0,10.0,75,0.00,,,0.02,Wunderground v.1.13,2014-12-27 18:34:00,
2014-12-27 13:44:00,51.1,43.4,30.12,SSE,147,6.0,6.0,75,0.00,,,0.02,Wunderground v.1.13,2014-12-27 18:44:00,
2014-12-27 13:54:00,51.3,43.3,30.11,ESE,107,5.0,5.0,74,0.00,,,0.02,Wunderground v.1.13,2014-12-27 18:54:00,
2014-12-27 14:04:00,51.4,43.7,30.11,SSE,147,5.0,6.0,75,0.00,,,0.02,Wunderground v.1.13,2014-12-27 19:04:00,
2014-12-27 14:14:00,51.3,43.6,30.11,ESE,117,7.0,8.0,75,0.00,,,0.02,Wunderground v.1.13,2014-12-27 19:14:00,
2014-12-27 14:24:00,51.3,44.0,30.11,SE,141,4.0,4.0,76,0.00,,,0.02,Wunderground v.1.13,2014-12-27 19:24:00,
2014-12-27 14:34:00,51.3,44.3,30.09,ESE,103,3.0,4.0,77,0.00,,,0.02,Wunderground v.1.13,2014-12-27 19:34:00,
2014-12-27 14:44:00,51.3,44.3,30.09,ESE,121,3.0,3.0,77,0.00,,,0.02,Wunderground v.1.13,2014-12-27 19:44:00,
2014-12-27 14:54:00,51.1,44.5,30.09,SE,130,5.0,5.0,78,0.00,,,0.02,Wunderground v.1.13,2014-12-27 19:54:00,
2014-12-27 15:04:00,51.0,44.4,30.09,SSE,147,5.0,5.0,78,0.00,,,0.02,Wunderground v.1.13,2014-12-27 20:04:00,
2014-12-27 15:14:00,50.8,44.5,30.09,SE,126,4.0,5.0,79,0.00,,,0.02,Wunderground v.1.13,2014-12-27 20:14:00,
2014-12-27 15:24:00,51.0,44.7,30.10,ESE,123,3.0,3.0,79,0.00,,,0.02,Wunderground v.1.13,2014-12-27 20:24:00,
2014-12-27 15:34:00,51.0,44.4,30.09,SE,128,5.0,8.0,78,0.00,,,0.02,Wunderground v.1.13,2014-12-27 20:34:00,
2014-12-27 15:44:00,51.0,44.7,30.09,ESE,107,5.0,5.0,79,0.00,,,0.02,Wunderground v.1.13,2014-12-27 20:44:00,
2014-12-27 15:54:00,51.0,44.7,30.09,ESE,120,4.0,6.0,79,0.00,,,0.02,Wunderground v.1.13,2014-12-27 20:54:00,
2014-12-27 16:04:00,50.7,44.8,30.10,SSE,148,4.0,4.0,80,0.00,,,0.02,Wunderground v.1.13,2014-12-27 21:04:00,
2014-12-27 16:14:00,50.7,44.8,30.10,SE,133,3.0,3.0,80,0.00,,,0.02,Wunderground v.1.13,2014-12-27 21:14:00,
2014-12-27 16:24:00,50.5,44.9,30.09,SE,138,3.0,3.0,81,0.00,,,0.02,Wunderground v.1.13,2014-12-27 21:24:00,
2014-12-27 16:34:00,50.5,45.2,30.11,SE,143,3.0,4.0,82,0.00,,,0.02,Wunderground v.1.13,2014-12-27 21:34:00,
2014-12-27 16:44:00,50.4,45.1,30.11,SE,145,3.0,3.0,82,0.00,,,0.02,Wunderground v.1.13,2014-12-27 21:44:00,
2014-12-27 16:54:00,50.4,45.1,30.10,SSE,147,0.0,2.0,82,0.00,,,0.02,Wunderground v.1.13,2014-12-27 21:54:00,
2014-12-27 17:04:00,50.2,45.2,30.10,SE,145,0.0,2.0,83,0.00,,,0.02,Wunderground v.1.13,2014-12-27 22:04:00,
2014-12-27 17:14:00,50.2,45.2,30.10,ESE,120,0.0,2.0,83,0.00,,,0.02,Wunderground v.1.13,2014-12-27 22:14:00,
2014-12-27 17:24:00,50.2,45.6,30.10,ESE,119,1.0,1.0,84,0.00,,,0.02,Wunderground v.1.13,2014-12-27 22:24:00,
2014-12-27 17:34:00,50.1,45.8,30.11,SE,134,1.0,3.0,85,0.13,,,0.04,Wunderground v.1.13,2014-12-27 22:34:00,
2014-12-27 17:44:00,49.9,45.9,30.11,SE,143,2.0,2.0,86,0.06,,,0.04,Wunderground v.1.13,2014-12-27 22:44:00,
2014-12-27 17:54:00,49.8,46.1,30.11,SE,141,1.0,1.0,87,0.00,,,0.05,Wunderground v.1.13,2014-12-27 22:54:00,
2014-12-27 18:04:00,49.8,46.4,30.11,SE,140,0.0,2.0,88,0.10,,,0.07,Wunderground v.1.13,2014-12-27 23:04:00,
2014-12-27 18:14:00,49.6,46.2,30.11,SE,140,0.0,2.0,88,0.08,,,0.08,Wunderground v.1.13,2014-12-27 23:14:00,
2014-12-27 18:24:00,49.5,46.4,30.10,SE,140,0.0,2.0,89,0.00,,,0.08,Wunderground v.1.13,2014-12-27 23:24:00,
2014-12-27 18:34:00,49.5,46.4,30.11,SE,133,0.0,2.0,89,0.13,,,0.10,Wunderground v.1.13,2014-12-27 23:34:00,
2014-12-27 18:44:00,49.4,46.3,30.11,SE,126,0.0,2.0,89,0.06,,,0.11,Wunderground v.1.13,2014-12-27 23:44:00,
2014-12-27 18:54:00,49.4,46.6,30.09,SE,130,1.0,1.0,90,0.10,,,0.13,Wunderground v.1.13,2014-12-27 23:54:00,
2014-12-27 19:04:00,49.2,46.4,30.10,ESE,114,1.0,2.0,90,0.07,,,0.14,Wunderground v.1.13,2014-12-28 00:04:00,
2014-12-27 19:14:00,49.1,46.6,30.10,ESE,106,2.0,2.0,91,0.17,,,0.16,Wunderground v.1.13,2014-12-28 00:14:00,
2014-12-27 19:24:00,49.1,46.6,30.09,SE,124,1.0,2.0,91,0.11,,,0.18,Wunderground v.1.13,2014-12-28 00:24:00,
2014-12-27 19:34:00,49.1,46.6,30.08,ESE,110,1.0,2.0,91,0.05,,,0.18,Wunderground v.1.13,2014-12-28 00:34:00,
2014-12-27 19:44:00,48.9,46.4,30.08,ESE,114,1.0,1.0,91,0.04,,,0.19,Wunderground v.1.13,2014-12-28 00:44:00,
2014-12-27 19:54:00,48.8,46.3,30.08,SE,127,2.0,2.0,91,0.07,,,0.20,Wunderground v.1.13,2014-12-28 00:54:00,
2014-12-27 20:04:00,48.6,46.1,30.06,ESE,119,1.0,1.0,91,0.04,,,0.21,Wunderground v.1.13,2014-12-28 01:04:00,
2014-12-27 20:14:00,48.5,46.0,30.06,East,100,2.0,2.0,91,0.08,,,0.22,Wunderground v.1.13,2014-12-28 01:14:00,
2014-12-27 20:24:00,48.5,46.0,30.05,ESE,106,0.0,2.0,91,0.04,,,0.22,Wunderground v.1.13,2014-12-28 01:24:00,
2014-12-27 20:34:00,48.5,46.0,30.06,ESE,106,1.0,1.0,91,0.00,,,0.22,Wunderground v.1.13,2014-12-28 01:34:00,
2014-12-27 20:44:00,48.5,46.0,30.06,ESE,109,0.0,3.0,91,0.00,,,0.22,Wunderground v.1.13,2014-12-28 01:44:00,
2014-12-27 20:54:00,48.5,46.0,30.06,ESE,123,1.0,1.0,91,0.00,,,0.22,Wunderground v.1.13,2014-12-28 01:54:00,
2014-12-27 21:04:00,48.5,46.0,30.06,SSE,151,1.0,2.0,91,0.00,,,0.22,Wunderground v.1.13,2014-12-28 02:04:00,
2014-12-27 21:14:00,48.5,46.0,30.06,SE,131,1.0,1.0,91,0.00,,,0.22,Wunderground v.1.13,2014-12-28 02:14:00,
2014-12-27 21:24:00,48.6,46.1,30.06,SE,144,2.0,2.0,91,0.00,,,0.22,Wunderground v.1.13,2014-12-28 02:24:00,
2014-12-27 21:34:00,48.6,46.1,30.06,SE,134,2.0,2.0,91,0.00,,,0.22,Wunderground v.1.13,2014-12-28 02:34:00,
2014-12-27 21:44:00,48.6,46.1,30.06,SSE,167,2.0,4.0,91,0.00,,,0.22,Wunderground v.1.13,2014-12-28 02:44:00,
2014-12-27 21:54:00,48.5,46.0,30.07,SSE,154,2.0,2.0,91,0.00,,,0.22,Wunderground v.1.13,2014-12-28 02:54:00,
2014-12-27 22:04:00,48.5,46.0,30.06,SSE,154,0.0,2.0,91,0.00,,,0.23,Wunderground v.1.13,2014-12-28 03:04:00,
2014-12-27 22:14:00,48.3,46.1,30.06,SSE,151,1.0,2.0,92,0.07,,,0.25,Wunderground v.1.13,2014-12-28 03:14:00,
2014-12-27 22:24:00,48.5,46.3,30.07,SE,144,1.0,1.0,92,0.10,,,0.26,Wunderground v.1.13,2014-12-28 03:24:00,
2014-12-27 22:34:00,48.5,46.3,30.07,SE,141,1.0,2.0,92,0.19,,,0.28,Wunderground v.1.13,2014-12-28 03:34:00,
2014-12-27 22:44:00,48.5,46.3,30.07,SE,144,1.0,1.0,92,0.05,,,0.28,Wunderground v.1.13,2014-12-28 03:44:00,
2014-12-27 22:54:00,48.3,46.1,30.07,East,96,0.0,2.0,92,0.04,,,0.29,Wunderground v.1.13,2014-12-28 03:54:00,
2014-12-27 23:04:00,48.3,46.1,30.07,SE,143,0.0,2.0,92,0.00,,,0.29,Wunderground v.1.13,2014-12-28 04:04:00,